Time;durP1;ratioP1;P1;durP2;ratioP2;P2;SDS_P1;SDS_P2;PMS_P1;PMS_P2;Temp;Humidity;BMP_temperature;BMP_pressure;BME280_temperature;BME280_humidity;BME280_pressure;Samples;Min_cycle;Max_cycle;Signal;HPM_P1;HPM_P2
2022/11/28 00:00:51;;;;;;;11.40;5.80;;;;;;;;;;6212418;28;20071;-82
2022/11/28 00:03:53;;;;;;;9.82;5.20;;;;;;;;;;6214354;28;20507;-82
2022/11/28 00:06:55;;;;;;;9.45;4.82;;;;;;;;;;6214510;28;20042;-80
2022/11/28 00:09:57;;;;;;;10.20;5.60;;;;;;;;;;6218070;28;20109;-82
2022/11/28 00:12:59;;;;;;;8.55;4.57;;;;;;;;;;6227917;28;20429;-80
2022/11/28 00:16:03;;;;;;;13.65;5.38;;;;;;;;;;6211562;28;20046;-83
2022/11/28 00:19:06;;;;;;;11.23;5.38;;;;;;;;;;6220301;28;20116;-82
2022/11/28 00:22:08;;;;;;;10.60;5.28;;;;;;;;;;6218638;28;20095;-81
2022/11/28 00:25:09;;;;;;;11.55;5.53;;;;;;;;;;6217260;28;20190;-81
2022/11/28 00:28:11;;;;;;;10.30;5.22;;;;;;;;;;6212497;28;20057;-82
2022/11/28 00:31:14;;;;;;;10.77;5.40;;;;;;;;;;6221864;28;20050;-82
2022/11/28 00:34:16;;;;;;;12.95;5.68;;;;;;;;;;6217172;28;20058;-82
2022/11/28 00:37:18;;;;;;;13.43;5.93;;;;;;;;;;6217678;28;20053;-81
2022/11/28 00:40:20;;;;;;;13.63;6.05;;;;;;;;;;6222100;28;20040;-81
2022/11/28 00:43:21;;;;;;;11.50;5.75;;;;;;;;;;6220027;28;20049;-81
2022/11/28 00:46:23;;;;;;;11.07;5.68;;;;;;;;;;6220065;28;20124;-81
2022/11/28 00:49:25;;;;;;;15.32;6.32;;;;;;;;;;6216205;28;20449;-79
2022/11/28 00:52:27;;;;;;;10.40;5.30;;;;;;;;;;6221286;28;20042;-82
2022/11/28 00:55:29;;;;;;;11.35;5.55;;;;;;;;;;6219807;28;20037;-81
2022/11/28 00:58:32;;;;;;;11.73;5.70;;;;;;;;;;6216015;28;20049;-81
2022/11/28 01:01:37;;;;;;;12.55;5.55;;;;;;;;;;6213969;28;20054;-82
2022/11/28 01:04:39;;;;;;;12.75;5.10;;;;;;;;;;6215618;28;20144;-81
2022/11/28 01:07:41;;;;;;;12.77;6.15;;;;;;;;;;6205425;28;20042;-81
2022/11/28 01:10:44;;;;;;;12.13;5.53;;;;;;;;;;6204715;28;20054;-81
2022/11/28 01:13:47;;;;;;;12.60;6.18;;;;;;;;;;6229281;28;20319;-82
2022/11/28 01:16:49;;;;;;;10.27;5.55;;;;;;;;;;6220278;28;20045;-82
2022/11/28 01:19:50;;;;;;;11.25;5.90;;;;;;;;;;6219382;28;20113;-82
2022/11/28 01:22:52;;;;;;;10.73;6.28;;;;;;;;;;6214800;28;20045;-80
2022/11/28 01:25:54;;;;;;;13.45;5.72;;;;;;;;;;6213989;28;20045;-82
2022/11/28 01:28:57;;;;;;;12.88;6.03;;;;;;;;;;6217759;28;20045;-82
2022/11/28 01:31:59;;;;;;;13.45;5.70;;;;;;;;;;6213301;28;20042;-82
2022/11/28 01:35:01;;;;;;;8.38;5.28;;;;;;;;;;6220121;28;20425;-81
2022/11/28 01:38:02;;;;;;;13.98;6.25;;;;;;;;;;6218799;28;20052;-82
2022/11/28 01:41:05;;;;;;;16.58;6.50;;;;;;;;;;6218804;28;20053;-81
2022/11/28 01:44:26;;;;;;;13.03;6.00;;;;;;;;;;6223827;28;20052;-81
2022/11/28 01:47:30;;;;;;;13.27;6.13;;;;;;;;;;6215271;28;20151;-82
2022/11/28 01:50:32;;;;;;;13.85;7.25;;;;;;;;;;6219571;28;20059;-82
2022/11/28 01:53:39;;;;;;;10.30;5.32;;;;;;;;;;6218818;28;20056;-82
2022/11/28 01:56:50;;;;;;;14.77;5.90;;;;;;;;;;6202808;28;21673;-82
2022/11/28 02:00:08;;;;;;;15.63;5.97;;;;;;;;;;6206311;28;20048;-82
2022/11/28 02:03:19;;;;;;;11.82;6.43;;;;;;;;;;6220081;28;20037;-81
2022/11/28 02:06:22;;;;;;;12.80;6.05;;;;;;;;;;6218619;28;20045;-81
2022/11/28 02:09:25;;;;;;;13.52;6.97;;;;;;;;;;6217497;28;20041;-82
2022/11/28 02:12:29;;;;;;;11.52;5.70;;;;;;;;;;6218247;28;20573;-82
2022/11/28 02:16:09;;;;;;;15.10;5.57;;;;;;;;;;6223434;28;21071;-82
2022/11/28 02:19:48;;;;;;;12.80;6.35;;;;;;;;;;6219000;28;20065;-81
2022/11/28 02:23:20;;;;;;;15.02;6.63;;;;;;;;;;6216893;28;20063;-83
2022/11/28 02:26:53;;;;;;;12.43;5.90;;;;;;;;;;6210273;28;20421;-81
2022/11/28 02:30:05;;;;;;;12.20;4.97;;;;;;;;;;6217634;28;20550;-81
2022/11/28 02:33:15;;;;;;;15.15;6.10;;;;;;;;;;6214505;28;20042;-82
2022/11/28 02:36:27;;;;;;;12.45;6.32;;;;;;;;;;6212446;28;20041;-81
2022/11/28 02:39:42;;;;;;;14.68;6.38;;;;;;;;;;6210604;28;20492;-82
2022/11/28 02:42:53;;;;;;;14.50;6.32;;;;;;;;;;6207725;28;20049;-81
2022/11/28 02:46:12;;;;;;;12.20;6.53;;;;;;;;;;6210410;28;20048;-82
2022/11/28 02:49:22;;;;;;;16.13;6.43;;;;;;;;;;6220542;28;20793;-82
2022/11/28 02:52:48;;;;;;;12.68;7.07;;;;;;;;;;6210173;28;20048;-82
2022/11/28 02:55:51;;;;;;;13.80;6.20;;;;;;;;;;6214435;28;20333;-81
2022/11/28 02:58:53;;;;;;;13.68;7.38;;;;;;;;;;6213679;28;20148;-82
2022/11/28 03:01:55;;;;;;;11.60;5.90;;;;;;;;;;6206572;28;20049;-82
2022/11/28 03:05:03;;;;;;;15.15;7.20;;;;;;;;;;6217351;28;20052;-81
2022/11/28 03:08:46;;;;;;;12.27;5.80;;;;;;;;;;6214626;28;20185;-81
2022/11/28 03:12:06;;;;;;;15.30;6.43;;;;;;;;;;6214772;28;20099;-83
2022/11/28 03:15:10;;;;;;;13.68;6.25;;;;;;;;;;6206866;28;20041;-82
2022/11/28 03:18:25;;;;;;;13.57;6.40;;;;;;;;;;6215694;28;20037;-82
2022/11/28 03:21:35;;;;;;;13.50;6.47;;;;;;;;;;6227617;28;20144;-82
2022/11/28 03:24:53;;;;;;;12.77;6.82;;;;;;;;;;6221087;28;20053;-82
2022/11/28 03:27:58;;;;;;;16.70;6.82;;;;;;;;;;6209593;28;20052;-83
2022/11/28 03:31:04;;;;;;;13.05;6.25;;;;;;;;;;6215342;28;20513;-82
2022/11/28 03:34:11;;;;;;;14.73;6.38;;;;;;;;;;6212189;28;20057;-80
2022/11/28 03:37:22;;;;;;;14.88;6.15;;;;;;;;;;6212829;28;20805;-81
2022/11/28 03:40:29;;;;;;;13.98;6.95;;;;;;;;;;6214749;28;20093;-81
2022/11/28 03:43:37;;;;;;;15.80;7.25;;;;;;;;;;6224763;28;20046;-82
2022/11/28 03:46:45;;;;;;;14.15;6.57;;;;;;;;;;6222465;28;20053;-81
2022/11/28 03:49:51;;;;;;;12.63;6.40;;;;;;;;;;6231707;28;20072;-81
2022/11/28 03:53:04;;;;;;;13.75;6.68;;;;;;;;;;6225481;28;20041;-80
2022/11/28 03:56:12;;;;;;;10.35;5.53;;;;;;;;;;6217400;28;20617;-82
2022/11/28 03:59:40;;;;;;;11.32;5.55;;;;;;;;;;6221546;28;20056;-81
2022/11/28 04:02:42;;;;;;;11.48;5.55;;;;;;;;;;6216453;28;20045;-82
2022/11/28 04:05:46;;;;;;;14.25;5.97;;;;;;;;;;6226272;28;20052;-81
2022/11/28 04:08:57;;;;;;;11.65;6.50;;;;;;;;;;6193096;28;20046;-82
2022/11/28 04:12:06;;;;;;;13.98;6.40;;;;;;;;;;6231746;28;20033;-80
2022/11/28 04:15:14;;;;;;;11.30;5.80;;;;;;;;;;6216061;28;20152;-83
2022/11/28 04:18:36;;;;;;;14.27;6.35;;;;;;;;;;6201056;28;20064;-82
2022/11/28 04:21:58;;;;;;;15.25;7.75;;;;;;;;;;6210712;28;20180;-80
2022/11/28 04:25:08;;;;;;;13.02;6.25;;;;;;;;;;6216748;28;20402;-81
2022/11/28 04:28:14;;;;;;;12.35;6.65;;;;;;;;;;6211191;28;20437;-81
2022/11/28 04:31:17;;;;;;;13.18;6.55;;;;;;;;;;6218155;28;20413;-81
2022/11/28 04:34:20;;;;;;;13.90;6.28;;;;;;;;;;6215811;28;20248;-80
2022/11/28 04:37:26;;;;;;;14.05;6.45;;;;;;;;;;6212256;28;20113;-81
2022/11/28 04:40:31;;;;;;;14.48;6.57;;;;;;;;;;6202279;28;20251;-82
2022/11/28 04:43:36;;;;;;;12.93;6.05;;;;;;;;;;6204461;28;20045;-82
2022/11/28 04:46:46;;;;;;;15.20;6.22;;;;;;;;;;6205823;28;20394;-82
2022/11/28 04:49:48;;;;;;;10.98;6.20;;;;;;;;;;6218904;28;20060;-83
2022/11/28 04:52:55;;;;;;;10.07;5.88;;;;;;;;;;6219717;28;20087;-82
2022/11/28 04:56:04;;;;;;;13.52;6.65;;;;;;;;;;6210027;28;20049;-81
2022/11/28 04:59:06;;;;;;;14.52;6.15;;;;;;;;;;6217347;28;20053;-80
2022/11/28 05:02:12;;;;;;;18.05;7.25;;;;;;;;;;6211250;28;20104;-81
2022/11/28 05:05:20;;;;;;;13.60;6.25;;;;;;;;;;6216422;28;20092;-81
2022/11/28 05:08:22;;;;;;;16.52;6.78;;;;;;;;;;6215595;28;20075;-81
2022/11/28 05:11:25;;;;;;;15.68;7.07;;;;;;;;;;6215231;28;20376;-82
2022/11/28 05:14:26;;;;;;;14.10;6.97;;;;;;;;;;6214756;28;20117;-82
2022/11/28 05:17:28;;;;;;;11.57;6.13;;;;;;;;;;6215180;28;20045;-82
2022/11/28 05:20:33;;;;;;;18.05;8.88;;;;;;;;;;6214703;28;21122;-82
2022/11/28 05:23:37;;;;;;;17.48;8.80;;;;;;;;;;6227779;28;20521;-81
2022/11/28 05:26:39;;;;;;;17.17;7.13;;;;;;;;;;6202945;28;20398;-82
2022/11/28 05:29:43;;;;;;;15.63;7.65;;;;;;;;;;6213859;28;20045;-81
2022/11/28 05:32:52;;;;;;;14.80;6.60;;;;;;;;;;6209273;28;20049;-82
2022/11/28 05:35:54;;;;;;;15.25;8.05;;;;;;;;;;6199528;28;20050;-81
2022/11/28 05:38:56;;;;;;;16.92;6.95;;;;;;;;;;6205313;28;20499;-81
2022/11/28 05:41:58;;;;;;;13.02;6.43;;;;;;;;;;6218293;28;20048;-81
2022/11/28 05:45:00;;;;;;;16.30;6.78;;;;;;;;;;6211607;28;20041;-81
2022/11/28 05:48:02;;;;;;;16.65;7.63;;;;;;;;;;6230866;28;20296;-82
2022/11/28 05:51:04;;;;;;;14.80;6.75;;;;;;;;;;6213049;28;20138;-81
2022/11/28 05:54:09;;;;;;;17.38;6.75;;;;;;;;;;6214354;28;20096;-81
2022/11/28 05:57:10;;;;;;;14.18;7.32;;;;;;;;;;6212571;28;20057;-80
2022/11/28 06:00:13;;;;;;;14.43;7.57;;;;;;;;;;6209173;28;20046;-80
2022/11/28 06:03:17;;;;;;;22.33;7.72;;;;;;;;;;6217936;28;20079;-81
2022/11/28 06:06:20;;;;;;;15.70;7.32;;;;;;;;;;6211191;28;20191;-82
2022/11/28 06:09:22;;;;;;;16.38;7.90;;;;;;;;;;6216619;28;20045;-81
2022/11/28 06:12:26;;;;;;;12.80;7.30;;;;;;;;;;6213110;28;20417;-82
2022/11/28 06:15:33;;;;;;;17.38;7.65;;;;;;;;;;6210779;28;20049;-81
2022/11/28 06:18:39;;;;;;;15.60;7.00;;;;;;;;;;6201342;28;20052;-82
2022/11/28 06:21:41;;;;;;;14.63;7.07;;;;;;;;;;6212269;28;20053;-81
2022/11/28 06:24:43;;;;;;;16.58;6.95;;;;;;;;;;6210093;28;20117;-81
2022/11/28 06:27:44;;;;;;;20.23;8.40;;;;;;;;;;6211233;28;20041;-81
2022/11/28 06:30:46;;;;;;;16.75;7.68;;;;;;;;;;6212455;28;20053;-82
2022/11/28 06:33:48;;;;;;;18.80;8.57;;;;;;;;;;6220656;28;20042;-82
2022/11/28 06:36:50;;;;;;;13.70;7.35;;;;;;;;;;6209376;28;20056;-82
2022/11/28 06:39:52;;;;;;;15.13;7.40;;;;;;;;;;6191122;28;20045;-82
2022/11/28 06:42:53;;;;;;;19.88;9.27;;;;;;;;;;6229886;28;20638;-81
2022/11/28 06:45:55;;;;;;;21.95;9.23;;;;;;;;;;6204586;28;20052;-82
2022/11/28 06:48:57;;;;;;;19.55;9.38;;;;;;;;;;6208846;28;20075;-81
2022/11/28 06:51:59;;;;;;;17.55;8.43;;;;;;;;;;6207206;28;20096;-83
2022/11/28 06:55:01;;;;;;;17.23;7.68;;;;;;;;;;6211657;28;20544;-81
2022/11/28 06:58:02;;;;;;;16.70;7.85;;;;;;;;;;6206078;28;20075;-82
2022/11/28 07:01:17;;;;;;;19.50;9.18;;;;;;;;;;6215363;28;20103;-81
2022/11/28 07:04:19;;;;;;;17.10;7.90;;;;;;;;;;6210458;28;20030;-82
2022/11/28 07:07:21;;;;;;;20.17;8.60;;;;;;;;;;6212371;28;20795;-80
2022/11/28 07:10:26;;;;;;;21.42;8.38;;;;;;;;;;6211200;28;20045;-81
2022/11/28 07:13:28;;;;;;;19.45;8.68;;;;;;;;;;6197346;28;20037;-82
2022/11/28 07:16:32;;;;;;;17.88;7.68;;;;;;;;;;6226168;28;20437;-80
2022/11/28 07:19:34;;;;;;;17.73;7.47;;;;;;;;;;6218898;28;20041;-82
2022/11/28 07:22:35;;;;;;;23.13;9.63;;;;;;;;;;6213801;28;20048;-82
2022/11/28 07:25:37;;;;;;;15.38;8.32;;;;;;;;;;6225657;28;20622;-80
2022/11/28 07:28:39;;;;;;;16.75;7.60;;;;;;;;;;6223188;28;20042;-82
2022/11/28 07:31:41;;;;;;;17.88;8.63;;;;;;;;;;6214345;28;20252;-81
2022/11/28 07:34:44;;;;;;;17.27;8.85;;;;;;;;;;6214584;28;20513;-81
2022/11/28 07:37:50;;;;;;;18.23;8.45;;;;;;;;;;6216703;28;20045;-82
2022/11/28 07:40:52;;;;;;;20.30;8.27;;;;;;;;;;6223511;28;20134;-82
2022/11/28 07:43:59;;;;;;;18.70;8.35;;;;;;;;;;6215051;28;20053;-82
2022/11/28 07:47:00;;;;;;;16.63;8.32;;;;;;;;;;6212758;28;20068;-81
2022/11/28 07:50:03;;;;;;;18.65;8.43;;;;;;;;;;6220937;28;20528;-81
2022/11/28 07:53:05;;;;;;;24.80;10.00;;;;;;;;;;6215332;28;20091;-81
2022/11/28 07:56:14;;;;;;;20.70;8.70;;;;;;;;;;6212221;28;20090;-80
2022/11/28 07:59:17;;;;;;;47.85;17.98;;;;;;;;;;6201932;28;20083;-82
2022/11/28 08:02:18;;;;;;;18.73;7.82;;;;;;;;;;6213587;28;22021;-81
2022/11/28 08:05:20;;;;;;;18.45;8.43;;;;;;;;;;6217376;28;20187;-82
2022/11/28 08:08:22;;;;;;;21.75;9.45;;;;;;;;;;6217747;28;20107;-81
2022/11/28 08:11:27;;;;;;;22.67;10.05;;;;;;;;;;6227916;28;20050;-81
2022/11/28 08:14:28;;;;;;;19.70;8.30;;;;;;;;;;6217317;28;20486;-79
2022/11/28 08:17:33;;;;;;;20.92;9.38;;;;;;;;;;6196707;28;20048;-80
2022/11/28 08:20:34;;;;;;;18.63;9.93;;;;;;;;;;6198004;28;20053;-81
2022/11/28 08:23:38;;;;;;;24.95;10.60;;;;;;;;;;6216631;28;20071;-80
2022/11/28 08:26:40;;;;;;;;;;;;;;;;;;6216774;28;20052;-81
2022/11/28 08:29:41;;;;;;;20.50;8.90;;;;;;;;;;6215406;28;20112;-81
2022/11/28 08:32:43;;;;;;;19.70;9.57;;;;;;;;;;6222624;28;20404;-81
2022/11/28 08:35:45;;;;;;;40.95;17.85;;;;;;;;;;6204571;28;20052;-80
2022/11/28 08:38:48;;;;;;;20.40;9.20;;;;;;;;;;6215695;28;20497;-80
2022/11/28 08:42:09;;;;;;;19.25;8.95;;;;;;;;;;6214783;28;20056;-79
2022/11/28 08:45:11;;;;;;;17.60;7.72;;;;;;;;;;6209461;28;20041;-79
2022/11/28 08:48:13;;;;;;;21.02;9.65;;;;;;;;;;6216930;28;20409;-80
2022/11/28 08:51:17;;;;;;;22.65;9.50;;;;;;;;;;6206856;28;20064;-80
2022/11/28 08:54:19;;;;;;;23.67;11.45;;;;;;;;;;6213757;28;20203;-79
2022/11/28 08:57:21;;;;;;;21.98;10.52;;;;;;;;;;6202706;28;20353;-80
2022/11/28 09:00:23;;;;;;;21.90;9.20;;;;;;;;;;6212329;28;20092;-82
2022/11/28 09:03:25;;;;;;;25.40;10.80;;;;;;;;;;6219425;28;20061;-82
2022/11/28 09:06:26;;;;;;;19.50;9.18;;;;;;;;;;6217769;28;20049;-82
2022/11/28 09:09:28;;;;;;;24.70;10.18;;;;;;;;;;6215901;28;20122;-81
2022/11/28 09:12:33;;;;;;;23.13;9.45;;;;;;;;;;6220211;28;20053;-81
2022/11/28 09:15:42;;;;;;;22.02;9.45;;;;;;;;;;6215306;28;20124;-81
2022/11/28 09:18:44;;;;;;;21.00;9.77;;;;;;;;;;6217230;28;20049;-81
2022/11/28 09:21:45;;;;;;;25.48;12.18;;;;;;;;;;6216850;28;20090;-81
2022/11/28 09:24:47;;;;;;;21.35;8.98;;;;;;;;;;6214308;28;20050;-81
2022/11/28 09:27:49;;;;;;;24.15;10.20;;;;;;;;;;6207523;28;20056;-81
2022/11/28 09:30:58;;;;;;;22.67;9.82;;;;;;;;;;6218463;28;20041;-81
2022/11/28 09:34:02;;;;;;;22.63;9.93;;;;;;;;;;6219523;28;20062;-81
2022/11/28 09:37:03;;;;;;;;;;;;;;;;;;6216693;28;20049;-82
2022/11/28 09:40:06;;;;;;;20.30;8.80;;;;;;;;;;6213396;28;19921;-81
2022/11/28 09:43:19;;;;;;;20.52;9.00;;;;;;;;;;6230335;28;20052;-81
2022/11/28 09:46:30;;;;;;;20.38;9.95;;;;;;;;;;6215921;28;20050;-82
2022/11/28 09:49:46;;;;;;;22.13;10.05;;;;;;;;;;6210660;28;20246;-80
2022/11/28 09:53:04;;;;;;;17.67;8.65;;;;;;;;;;6214604;28;20239;-80
2022/11/28 09:56:18;;;;;;;21.40;9.70;;;;;;;;;;6215687;28;20572;-80
2022/11/28 09:59:28;;;;;;;18.92;8.18;;;;;;;;;;6217817;28;20045;-80
2022/11/28 10:02:42;;;;;;;17.63;8.38;;;;;;;;;;6217562;28;20184;-82
2022/11/28 10:05:44;;;;;;;22.05;9.77;;;;;;;;;;6205919;28;20049;-81
2022/11/28 10:09:23;;;;;;;24.40;13.25;;;;;;;;;;6225529;28;20041;-80
2022/11/28 10:12:37;;;;;;;19.30;8.27;;;;;;;;;;6211870;28;20175;-80
2022/11/28 10:15:47;;;;;;;;;;;;;;;;;;6224997;28;20045;-81
2022/11/28 10:19:08;;;;;;;21.50;11.18;;;;;;;;;;6215323;28;20396;-80
2022/11/28 10:22:35;;;;;;;19.13;8.30;;;;;;;;;;6226637;28;21560;-81
2022/11/28 10:26:01;;;;;;;29.65;13.30;;;;;;;;;;6212077;28;20042;-80
2022/11/28 10:29:38;;;;;;;16.20;8.15;;;;;;;;;;6215146;28;20049;-80
2022/11/28 10:32:44;;;;;;;18.27;7.88;;;;;;;;;;6194243;28;20100;-80
2022/11/28 10:35:57;;;;;;;17.48;7.93;;;;;;;;;;6207903;28;20405;-80
2022/11/28 10:39:08;;;;;;;13.82;7.13;;;;;;;;;;6216114;28;20051;-78
2022/11/28 10:42:21;;;;;;;15.40;7.27;;;;;;;;;;6215565;28;20392;-78
2022/11/28 10:45:34;;;;;;;12.38;6.68;;;;;;;;;;6214178;28;20493;-80
2022/11/28 10:48:54;;;;;;;14.73;6.88;;;;;;;;;;6229585;28;20207;-80
2022/11/28 10:52:11;;;;;;;13.85;7.35;;;;;;;;;;6209148;28;20121;-79
2022/11/28 10:55:37;;;;;;;14.77;7.00;;;;;;;;;;6211758;28;20426;-80
2022/11/28 10:59:03;;;;;;;14.50;6.45;;;;;;;;;;6207731;28;20050;-80
2022/11/28 11:02:21;;;;;;;15.68;7.18;;;;;;;;;;6218081;28;20084;-80
2022/11/28 11:05:28;;;;;;;15.70;7.13;;;;;;;;;;6217575;28;20045;-81
2022/11/28 11:08:35;;;;;;;14.43;6.93;;;;;;;;;;6230953;28;20124;-81
2022/11/28 11:11:46;;;;;;;14.65;7.32;;;;;;;;;;6229504;28;20057;-80
2022/11/28 11:14:48;;;;;;;17.25;7.07;;;;;;;;;;6222471;28;20042;-79
2022/11/28 11:17:50;;;;;;;15.68;7.57;;;;;;;;;;6208034;28;20577;-81
2022/11/28 11:21:06;;;;;;;18.10;7.57;;;;;;;;;;6212276;28;20034;-81
2022/11/28 11:24:25;;;;;;;20.10;8.43;;;;;;;;;;6213957;28;20049;-81
2022/11/28 11:27:27;;;;;;;16.52;7.85;;;;;;;;;;6223416;28;20476;-80
2022/11/28 11:30:38;;;;;;;16.88;8.82;;;;;;;;;;6208504;28;20262;-81
2022/11/28 11:33:41;;;;;;;16.48;6.78;;;;;;;;;;6224814;28;20049;-80
2022/11/28 11:36:43;;;;;;;20.10;8.17;;;;;;;;;;6211908;28;20206;-80
2022/11/28 11:39:50;;;;;;;17.90;7.97;;;;;;;;;;6215326;28;20517;-80
2022/11/28 11:42:55;;;;;;;15.40;7.95;;;;;;;;;;6212342;28;20037;-80
2022/11/28 11:46:11;;;;;;;17.73;7.70;;;;;;;;;;6185539;28;20475;-81
2022/11/28 11:49:37;;;;;;;22.75;11.27;;;;;;;;;;6201374;28;20306;-79
2022/11/28 11:52:38;;;;;;;21.35;9.57;;;;;;;;;;6219574;28;20060;-79
2022/11/28 11:55:54;;;;;;;40.33;14.60;;;;;;;;;;6206368;28;20520;-80
2022/11/28 11:59:00;;;;;;;20.17;10.25;;;;;;;;;;6211841;28;20049;-79
2022/11/28 12:02:18;;;;;;;61.50;23.23;;;;;;;;;;6209687;28;20045;-80
2022/11/28 12:05:42;;;;;;;144.75;47.65;;;;;;;;;;6212568;28;20053;-79
2022/11/28 12:09:45;;;;;;;21.17;8.95;;;;;;;;;;6210374;28;20049;-79
2022/11/28 12:12:47;;;;;;;129.32;39.45;;;;;;;;;;6214548;28;20188;-80
2022/11/28 12:16:33;;;;;;;36.50;12.73;;;;;;;;;;6220044;28;20042;-80
2022/11/28 12:19:50;;;;;;;35.53;13.15;;;;;;;;;;6231669;28;20056;-80
2022/11/28 12:23:17;;;;;;;24.13;9.10;;;;;;;;;;6227546;28;20053;-79
2022/11/28 12:26:41;;;;;;;97.60;26.80;;;;;;;;;;6224513;28;20042;-80
2022/11/28 12:30:00;;;;;;;33.78;14.90;;;;;;;;;;6223586;28;20045;-80
2022/11/28 12:33:38;;;;;;;21.13;8.52;;;;;;;;;;6212616;28;20088;-80
2022/11/28 12:37:24;;;;;;;16.02;7.78;;;;;;;;;;6189944;28;20050;-80
2022/11/28 12:41:13;;;;;;;17.58;8.38;;;;;;;;;;6207008;28;20052;-79
2022/11/28 12:44:21;;;;;;;22.88;11.45;;;;;;;;;;6217049;28;20057;-80
2022/11/28 12:47:52;;;;;;;21.38;9.77;;;;;;;;;;6213084;28;20057;-81
2022/11/28 12:51:06;;;;;;;19.27;7.72;;;;;;;;;;6211057;28;20041;-80
2022/11/28 12:54:34;;;;;;;20.42;10.57;;;;;;;;;;6202970;28;20053;-80
2022/11/28 12:57:48;;;;;;;21.50;11.65;;;;;;;;;;6173986;28;20557;-81
2022/11/28 13:01:14;;;;;;;23.77;11.98;;;;;;;;;;6212258;28;20041;-80
2022/11/28 13:04:30;;;;;;;27.10;12.57;;;;;;;;;;6228279;28;20506;-82
2022/11/28 13:08:01;;;;;;;25.02;11.88;;;;;;;;;;6210706;28;20438;-81
2022/11/28 13:11:30;;;;;;;39.53;26.42;;;;;;;;;;6212813;28;20132;-80
2022/11/28 13:14:35;;;;;;;67.80;34.13;;;;;;;;;;6216217;28;20057;-79
2022/11/28 13:17:57;;;;;;;31.48;17.83;;;;;;;;;;6215880;28;20413;-79
2022/11/28 13:21:23;;;;;;;20.10;12.43;;;;;;;;;;6214029;28;20057;-80
2022/11/28 13:24:30;;;;;;;20.23;12.30;;;;;;;;;;6212631;28;20200;-80
2022/11/28 13:27:47;;;;;;;23.50;9.98;;;;;;;;;;6231468;28;20566;-80
2022/11/28 13:30:54;;;;;;;18.98;9.93;;;;;;;;;;6212869;28;20230;-78
2022/11/28 13:33:57;;;;;;;33.47;17.67;;;;;;;;;;6207753;28;20053;-78
2022/11/28 13:37:11;;;;;;;22.93;10.27;;;;;;;;;;6198329;28;20064;-81
2022/11/28 13:40:39;;;;;;;26.85;12.52;;;;;;;;;;6213431;28;20518;-80
2022/11/28 13:44:02;;;;;;;31.48;14.18;;;;;;;;;;6214158;28;20041;-80
2022/11/28 13:47:26;;;;;;;28.52;13.80;;;;;;;;;;6206791;28;20064;-80
2022/11/28 13:50:38;;;;;;;28.48;13.15;;;;;;;;;;6214543;28;20049;-80
2022/11/28 13:53:41;;;;;;;21.80;10.43;;;;;;;;;;6217534;28;20089;-80
2022/11/28 13:57:12;;;;;;;29.27;13.32;;;;;;;;;;6221066;28;20792;-80
2022/11/28 14:00:17;;;;;;;20.30;9.35;;;;;;;;;;6214998;28;21712;-81
2022/11/28 14:03:19;;;;;;;13.32;7.20;;;;;;;;;;6204280;28;20042;-80
2022/11/28 14:06:25;;;;;;;18.83;8.30;;;;;;;;;;6213512;28;20368;-79
2022/11/28 14:09:46;;;;;;;18.48;9.60;;;;;;;;;;6215581;28;20128;-76
2022/11/28 14:13:26;;;;;;;27.42;14.38;;;;;;;;;;6218239;28;20117;-80
2022/11/28 14:16:50;;;;;;;23.05;11.90;;;;;;;;;;6221257;28;20041;-80
2022/11/28 14:20:03;;;;;;;34.90;19.80;;;;;;;;;;6217154;28;20128;-78
2022/11/28 14:23:14;;;;;;;35.92;19.73;;;;;;;;;;6213793;28;20046;-79
2022/11/28 14:26:37;;;;;;;43.00;23.05;;;;;;;;;;6200705;28;20046;-79
2022/11/28 14:29:47;;;;;;;48.25;22.92;;;;;;;;;;6227799;28;20148;-79
2022/11/28 14:32:56;;;;;;;60.60;28.35;;;;;;;;;;6231544;28;20046;-79
2022/11/28 14:36:04;;;;;;;56.05;28.25;;;;;;;;;;6199346;28;20192;-79
2022/11/28 14:39:06;;;;;;;93.68;47.15;;;;;;;;;;6217023;28;20056;-80
2022/11/28 14:42:08;;;;;;;48.63;21.40;;;;;;;;;;6224117;28;20045;-79
2022/11/28 14:45:41;;;;;;;45.47;22.20;;;;;;;;;;6203281;28;20047;-79
2022/11/28 14:48:59;;;;;;;30.92;14.98;;;;;;;;;;6210589;28;20033;-80
2022/11/28 14:52:17;;;;;;;23.05;11.85;;;;;;;;;;6225153;28;20045;-80
2022/11/28 14:55:38;;;;;;;22.38;10.32;;;;;;;;;;6198885;28;20041;-79
2022/11/28 14:58:48;;;;;;;21.13;9.45;;;;;;;;;;6211692;28;20041;-79
2022/11/28 15:02:04;;;;;;;24.70;11.48;;;;;;;;;;6231760;28;20525;-80
2022/11/28 15:05:21;;;;;;;23.23;10.85;;;;;;;;;;6201044;28;20124;-79
2022/11/28 15:08:44;;;;;;;21.85;9.80;;;;;;;;;;6177157;28;20087;-79
2022/11/28 15:11:57;;;;;;;24.23;10.20;;;;;;;;;;6190823;28;20067;-79
2022/11/28 15:15:00;;;;;;;25.02;10.80;;;;;;;;;;6201246;28;20317;-79
2022/11/28 15:18:03;;;;;;;26.48;12.95;;;;;;;;;;6190944;28;20144;-79
2022/11/28 15:21:12;;;;;;;25.63;9.75;;;;;;;;;;6183492;28;20046;-77
2022/11/28 15:24:22;;;;;;;24.88;10.68;;;;;;;;;;6182893;28;20081;-79
2022/11/28 15:27:26;;;;;;;23.95;10.20;;;;;;;;;;6175776;28;20057;-77
2022/11/28 15:30:28;;;;;;;;;;;;;;;;;;6186188;28;20045;-78
2022/11/28 15:33:31;;;;;;;21.88;10.38;;;;;;;;;;6211267;28;19936;-78
2022/11/28 15:36:33;;;;;;;20.58;9.82;;;;;;;;;;6186091;28;20422;-77
2022/11/28 15:39:39;;;;;;;32.00;11.15;;;;;;;;;;6200600;28;20402;-78
2022/11/28 15:42:43;;;;;;;22.70;9.77;;;;;;;;;;6204114;28;20098;-78
2022/11/28 15:45:51;;;;;;;23.88;10.85;;;;;;;;;;6214069;28;20053;-77
2022/11/28 15:48:53;;;;;;;22.08;10.98;;;;;;;;;;6229118;28;20049;-77
2022/11/28 15:52:00;;;;;;;30.20;10.80;;;;;;;;;;6227423;28;20064;-78
2022/11/28 15:55:12;;;;;;;26.33;10.50;;;;;;;;;;6217124;28;20551;-76
2022/11/28 15:58:24;;;;;;;24.65;11.68;;;;;;;;;;6223673;28;20091;-79
2022/11/28 16:01:26;;;;;;;83.43;30.23;;;;;;;;;;6219482;28;20156;-78
2022/11/28 16:04:30;;;;;;;57.35;24.60;;;;;;;;;;6214580;28;20536;-79
2022/11/28 16:07:33;;;;;;;38.83;19.15;;;;;;;;;;6210777;28;20071;-79
2022/11/28 16:10:43;;;;;;;33.13;15.32;;;;;;;;;;6203095;28;20048;-78
2022/11/28 16:13:46;;;;;;;29.23;12.30;;;;;;;;;;6213355;28;20057;-78
2022/11/28 16:16:47;;;;;;;22.33;11.20;;;;;;;;;;6211084;28;20120;-78
2022/11/28 16:19:52;;;;;;;28.58;12.02;;;;;;;;;;6221607;28;20501;-78
2022/11/28 16:22:59;;;;;;;29.92;13.13;;;;;;;;;;6210364;28;20050;-77
2022/11/28 16:26:24;;;;;;;30.50;14.25;;;;;;;;;;6216119;28;20367;-78
2022/11/28 16:29:35;;;;;;;34.88;13.35;;;;;;;;;;6227942;28;20097;-77
2022/11/28 16:32:39;;;;;;;33.30;15.18;;;;;;;;;;6214558;28;20049;-78
2022/11/28 16:35:41;;;;;;;44.95;18.00;;;;;;;;;;6208322;28;20113;-78
2022/11/28 16:38:44;;;;;;;33.17;13.05;;;;;;;;;;6213984;28;20050;-77
2022/11/28 16:41:53;;;;;;;29.90;12.35;;;;;;;;;;6218545;28;20246;-77
2022/11/28 16:45:14;;;;;;;28.77;13.57;;;;;;;;;;6216358;28;20057;-78
2022/11/28 16:48:18;;;;;;;29.52;12.13;;;;;;;;;;6206684;28;20108;-78
2022/11/28 16:51:19;;;;;;;31.85;13.98;;;;;;;;;;6208028;28;20041;-80
2022/11/28 16:54:31;;;;;;;35.88;15.70;;;;;;;;;;6217217;28;20049;-78
2022/11/28 16:57:45;;;;;;;30.33;13.45;;;;;;;;;;6213549;28;20069;-78
2022/11/28 17:00:59;;;;;;;28.47;13.57;;;;;;;;;;6224005;28;20037;-79
2022/11/28 17:04:02;;;;;;;47.55;18.27;;;;;;;;;;6214844;28;20452;-78
2022/11/28 17:07:08;;;;;;;198.30;66.30;;;;;;;;;;6210024;28;20045;-81
2022/11/28 17:10:13;;;;;;;115.63;51.03;;;;;;;;;;6216925;28;20448;-77
2022/11/28 17:13:16;;;;;;;43.55;19.92;;;;;;;;;;6213224;28;20064;-79
2022/11/28 17:16:23;;;;;;;71.90;29.47;;;;;;;;;;6211316;28;20061;-80
2022/11/28 17:19:25;;;;;;;67.05;29.33;;;;;;;;;;6226386;28;20279;-80
2022/11/28 17:22:42;;;;;;;38.97;17.85;;;;;;;;;;6215271;28;20049;-79
2022/11/28 17:25:43;;;;;;;45.42;17.98;;;;;;;;;;6228120;28;20049;-78
2022/11/28 17:28:45;;;;;;;65.22;36.20;;;;;;;;;;6212971;28;20064;-78
2022/11/28 17:31:48;;;;;;;51.13;24.52;;;;;;;;;;6191834;28;20113;-77
2022/11/28 17:34:52;;;;;;;41.57;17.70;;;;;;;;;;6212396;28;20049;-79
2022/11/28 17:37:54;;;;;;;38.05;17.27;;;;;;;;;;6190998;28;20042;-78
2022/11/28 17:40:56;;;;;;;47.97;19.48;;;;;;;;;;6215364;28;20867;-80
2022/11/28 17:43:57;;;;;;;38.03;16.58;;;;;;;;;;6210487;28;20045;-78
2022/11/28 17:47:00;;;;;;;45.90;17.42;;;;;;;;;;6216314;28;20053;-80
2022/11/28 17:50:02;;;;;;;35.70;16.48;;;;;;;;;;6189278;28;20053;-79
2022/11/28 17:53:06;;;;;;;42.67;16.38;;;;;;;;;;6216628;28;20068;-78
2022/11/28 17:56:11;;;;;;;43.25;20.02;;;;;;;;;;6210417;28;20128;-80
2022/11/28 17:59:15;;;;;;;43.22;18.17;;;;;;;;;;6225455;28;20117;-80
2022/11/28 18:02:16;;;;;;;;;;;;;;;;;;6214247;28;21748;-80
2022/11/28 18:05:18;;;;;;;28.55;13.52;;;;;;;;;;6226687;28;19925;-79
2022/11/28 18:08:21;;;;;;;35.35;15.18;;;;;;;;;;6220440;28;20057;-78
2022/11/28 18:11:23;;;;;;;39.33;16.10;;;;;;;;;;6219206;28;20457;-79
2022/11/28 18:14:25;;;;;;;43.85;21.38;;;;;;;;;;6219984;28;20041;-79
2022/11/28 18:17:26;;;;;;;45.13;19.10;;;;;;;;;;6217838;28;20107;-78
2022/11/28 18:20:30;;;;;;;40.17;18.95;;;;;;;;;;6219694;28;20136;-80
2022/11/28 18:23:32;;;;;;;47.97;21.45;;;;;;;;;;6216690;28;20053;-79
2022/11/28 18:26:34;;;;;;;41.95;21.80;;;;;;;;;;6224130;28;20398;-79
2022/11/28 18:29:36;;;;;;;56.93;24.90;;;;;;;;;;6205524;28;20428;-78